Time;durP1;ratioP1;P1;durP2;ratioP2;P2;SDS_P1;SDS_P2;PMS_P1;PMS_P2;Temp;Humidity;BMP_temperature;BMP_pressure;BME280_temperature;BME280_humidity;BME280_pressure;Samples;Min_cycle;Max_cycle;Signal;HPM_P1;HPM_P2
2023/05/11 00:00:10;;;;;;;2.58;1.60;;;;;;;;;;1030418;28;20110;-73
2023/05/11 00:00:41;;;;;;;9.48;3.33;;;;;;;;;;1028733;28;20037;-73
2023/05/11 00:01:11;;;;;;;7.07;1.60;;;;;;;;;;1029867;28;20033;-75
2023/05/11 00:01:42;;;;;;;4.70;1.92;;;;;;;;;;1029514;28;20124;-73
2023/05/11 00:02:13;;;;;;;0.35;0.35;;;;;;;;;;1029516;28;20058;-73
2023/05/11 00:02:44;;;;;;;2.70;1.67;;;;;;;;;;1030013;28;20121;-73
2023/05/11 00:03:14;;;;;;;3.92;2.28;;;;;;;;;;1030010;28;20026;-73
2023/05/11 00:03:45;;;;;;;4.88;2.05;;;;;;;;;;1029040;28;20042;-73
2023/05/11 00:04:16;;;;;;;2.80;1.52;;;;;;;;;;1029854;28;20035;-76
2023/05/11 00:04:46;;;;;;;2.17;1.67;;;;;;;;;;1030022;28;20023;-73
2023/05/11 00:05:17;;;;;;;1.17;1.08;;;;;;;;;;1030165;28;20030;-73
2023/05/11 00:05:48;;;;;;;1.17;0.82;;;;;;;;;;1029951;28;20022;-74
2023/05/11 00:06:18;;;;;;;3.15;1.55;;;;;;;;;;1030223;28;20030;-74
2023/05/11 00:06:49;;;;;;;6.13;1.63;;;;;;;;;;1029199;28;20031;-74
2023/05/11 00:07:20;;;;;;;2.70;1.73;;;;;;;;;;1030208;28;20037;-74
2023/05/11 00:07:50;;;;;;;2.38;1.10;;;;;;;;;;1028822;28;20027;-73
2023/05/11 00:08:21;;;;;;;2.67;1.60;;;;;;;;;;1029968;28;20483;-73
2023/05/11 00:08:51;;;;;;;7.72;2.80;;;;;;;;;;1029704;28;20018;-73
2023/05/11 00:09:21;;;;;;;2.70;0.82;;;;;;;;;;1029937;28;20030;-73
2023/05/11 00:09:52;;;;;;;2.42;1.70;;;;;;;;;;1029777;28;20053;-73
2023/05/11 00:10:22;;;;;;;0.88;0.88;;;;;;;;;;1028895;28;20124;-73
2023/05/11 00:10:53;;;;;;;3.75;2.13;;;;;;;;;;1030021;28;20031;-74
2023/05/11 00:11:24;;;;;;;2.47;1.98;;;;;;;;;;1030645;28;20040;-73
2023/05/11 00:11:54;;;;;;;2.13;1.33;;;;;;;;;;1028613;28;20612;-74
2023/05/11 00:12:25;;;;;;;3.17;1.25;;;;;;;;;;1029924;28;20026;-74
2023/05/11 00:12:55;;;;;;;2.47;1.45;;;;;;;;;;1029881;28;20497;-73
2023/05/11 00:13:26;;;;;;;0.98;0.88;;;;;;;;;;1029966;28;20077;-73
2023/05/11 00:13:57;;;;;;;3.17;1.42;;;;;;;;;;1029282;28;20022;-74
2023/05/11 00:14:27;;;;;;;2.40;2.17;;;;;;;;;;1029323;28;20101;-73
2023/05/11 00:14:58;;;;;;;7.07;3.00;;;;;;;;;;1029518;28;20618;-73
2023/05/11 00:15:28;;;;;;;4.28;1.35;;;;;;;;;;1029541;28;20025;-73
2023/05/11 00:15:59;;;;;;;2.88;1.13;;;;;;;;;;1029132;28;20018;-73
2023/05/11 00:16:29;;;;;;;4.70;1.42;;;;;;;;;;1029557;28;20019;-73
2023/05/11 00:17:00;;;;;;;4.47;0.52;;;;;;;;;;1029272;28;20030;-74
2023/05/11 00:17:30;;;;;;;1.15;0.80;;;;;;;;;;1029076;28;20026;-74
2023/05/11 00:18:01;;;;;;;1.90;1.08;;;;;;;;;;1029910;28;20478;-74
2023/05/11 00:18:31;;;;;;;1.63;0.82;;;;;;;;;;1029711;28;20109;-75
2023/05/11 00:19:01;;;;;;;7.68;2.65;;;;;;;;;;1029711;28;20027;-73
2023/05/11 00:19:32;;;;;;;2.30;2.10;;;;;;;;;;1029934;28;20058;-73
2023/05/11 00:20:03;;;;;;;1.70;1.27;;;;;;;;;;1030088;28;20394;-73
2023/05/11 00:20:33;;;;;;;0.77;0.40;;;;;;;;;;1030051;28;20110;-75
2023/05/11 00:21:04;;;;;;;11.77;3.35;;;;;;;;;;1030006;28;20125;-75
2023/05/11 00:21:34;;;;;;;7.93;2.85;;;;;;;;;;1027184;28;20027;-73
2023/05/11 00:22:05;;;;;;;0.43;0.38;;;;;;;;;;1027164;28;20054;-73
2023/05/11 00:22:36;;;;;;;2.75;1.75;;;;;;;;;;1027531;28;20045;-73
2023/05/11 00:23:06;;;;;;;5.38;1.45;;;;;;;;;;1027501;28;20037;-74
2023/05/11 00:23:37;;;;;;;3.38;2.05;;;;;;;;;;1024709;28;20037;-73
2023/05/11 00:24:07;;;;;;;1.75;1.20;;;;;;;;;;1024960;28;20023;-73
2023/05/11 00:24:38;;;;;;;10.40;1.55;;;;;;;;;;1030078;28;20506;-73
2023/05/11 00:25:08;;;;;;;3.58;2.05;;;;;;;;;;1029081;28;20096;-73
2023/05/11 00:25:39;;;;;;;5.45;1.27;;;;;;;;;;1029714;28;20483;-73
2023/05/11 00:26:10;;;;;;;2.83;1.77;;;;;;;;;;1030351;28;20057;-75
2023/05/11 00:26:40;;;;;;;3.83;2.33;;;;;;;;;;1030006;28;20023;-73
2023/05/11 00:27:10;;;;;;;1.50;0.57;;;;;;;;;;1029301;28;20022;-73
2023/05/11 00:27:44;;;;;;;1.55;0.90;;;;;;;;;;1029650;28;20026;-73
2023/05/11 00:28:15;;;;;;;2.28;1.75;;;;;;;;;;1024861;28;20051;-73
2023/05/11 00:28:45;;;;;;;0.85;0.73;;;;;;;;;;1025558;28;20019;-73
2023/05/11 00:29:16;;;;;;;6.45;1.00;;;;;;;;;;1025897;28;20031;-75
2023/05/11 00:29:46;;;;;;;0.40;0.38;;;;;;;;;;1025413;28;20085;-75
2023/05/11 00:30:17;;;;;;;7.07;1.88;;;;;;;;;;1025472;28;20034;-75
2023/05/11 00:30:47;;;;;;;2.80;0.60;;;;;;;;;;1025101;28;20023;-73
2023/05/11 00:31:18;;;;;;;4.75;2.38;;;;;;;;;;1025766;28;20027;-73
2023/05/11 00:31:48;;;;;;;0.85;0.75;;;;;;;;;;1029092;28;20018;-73
2023/05/11 00:32:19;;;;;;;0.47;0.47;;;;;;;;;;1029437;28;20026;-73
2023/05/11 00:32:50;;;;;;;3.03;0.47;;;;;;;;;;1030389;28;20038;-75
2023/05/11 00:33:21;;;;;;;1.33;0.63;;;;;;;;;;1027585;28;20092;-73
2023/05/11 00:33:53;;;;;;;4.30;1.95;;;;;;;;;;1027327;28;20458;-75
2023/05/11 00:34:24;;;;;;;2.60;2.15;;;;;;;;;;1027616;28;20027;-75
2023/05/11 00:34:54;;;;;;;13.15;1.95;;;;;;;;;;1027594;28;20105;-75
2023/05/11 00:35:25;;;;;;;5.95;1.27;;;;;;;;;;1029791;28;20102;-75
2023/05/11 00:35:55;;;;;;;0.75;0.73;;;;;;;;;;1029586;28;20029;-75
2023/05/11 00:36:26;;;;;;;1.55;0.90;;;;;;;;;;1029534;28;20065;-75
2023/05/11 00:36:56;;;;;;;2.58;1.33;;;;;;;;;;1029049;28;20065;-75
2023/05/11 00:37:27;;;;;;;3.75;1.42;;;;;;;;;;1030033;28;20471;-75
2023/05/11 00:37:58;;;;;;;9.77;1.75;;;;;;;;;;1029639;28;20044;-74
2023/05/11 00:38:28;;;;;;;2.17;1.80;;;;;;;;;;1029219;28;20081;-75
2023/05/11 00:38:59;;;;;;;11.15;0.80;;;;;;;;;;1030094;28;20125;-75
2023/05/11 00:39:29;;;;;;;5.80;2.85;;;;;;;;;;1028846;28;20061;-75
2023/05/11 00:40:00;;;;;;;3.63;2.72;;;;;;;;;;1029481;28;20050;-75
2023/05/11 00:40:31;;;;;;;0.05;0.05;;;;;;;;;;1029699;28;20014;-75
2023/05/11 00:41:02;;;;;;;2.20;0.35;;;;;;;;;;1029440;28;20121;-75
2023/05/11 00:41:32;;;;;;;4.25;1.25;;;;;;;;;;1029901;28;20027;-75
2023/05/11 00:42:03;;;;;;;0.70;0.70;;;;;;;;;;1025867;28;20031;-74
2023/05/11 00:42:33;;;;;;;1.00;0.63;;;;;;;;;;1027551;28;20029;-74
2023/05/11 00:43:04;;;;;;;0.70;0.70;;;;;;;;;;1027552;28;20049;-74
2023/05/11 00:43:34;;;;;;;3.38;1.17;;;;;;;;;;1027354;28;20119;-75
2023/05/11 00:44:05;;;;;;;0.20;0.17;;;;;;;;;;1030467;28;20030;-74
2023/05/11 00:44:35;;;;;;;0.20;0.20;;;;;;;;;;1029246;28;20558;-74
2023/05/11 00:45:06;;;;;;;3.35;0.80;;;;;;;;;;1030521;28;20030;-75
2023/05/11 00:45:36;;;;;;;6.35;2.88;;;;;;;;;;1028538;28;20029;-75
2023/05/11 00:46:07;;;;;;;2.20;0.60;;;;;;;;;;1029626;28;20035;-75
2023/05/11 00:46:38;;;;;;;2.63;2.40;;;;;;;;;;1029677;28;20023;-74
2023/05/11 00:47:08;;;;;;;12.50;1.25;;;;;;;;;;1029657;28;20030;-74
2023/05/11 00:47:39;;;;;;;10.90;3.63;;;;;;;;;;1029599;28;20027;-74
2023/05/11 00:48:10;;;;;;;29.10;10.52;;;;;;;;;;1029664;28;20023;-75
2023/05/11 00:48:40;;;;;;;19.05;5.90;;;;;;;;;;1030763;28;20078;-75
2023/05/11 00:49:11;;;;;;;19.92;9.07;;;;;;;;;;1029613;28;20053;-75
2023/05/11 00:49:41;;;;;;;22.13;11.43;;;;;;;;;;1029540;28;20037;-75
2023/05/11 00:50:12;;;;;;;45.90;18.30;;;;;;;;;;1028745;28;20607;-75
2023/05/11 00:50:42;;;;;;;42.63;15.80;;;;;;;;;;1030176;28;20025;-74
2023/05/11 00:51:13;;;;;;;37.15;16.25;;;;;;;;;;1030059;28;20022;-74
2023/05/11 00:51:44;;;;;;;31.02;14.15;;;;;;;;;;1027945;28;20057;-75
2023/05/11 00:52:14;;;;;;;24.48;13.25;;;;;;;;;;1029615;28;20030;-75
2023/05/11 00:52:45;;;;;;;27.58;12.23;;;;;;;;;;1029637;28;20517;-75
2023/05/11 00:53:15;;;;;;;32.75;14.27;;;;;;;;;;1028445;28;20465;-75
2023/05/11 00:53:46;;;;;;;21.45;10.15;;;;;;;;;;1029105;28;20094;-75
2023/05/11 00:54:17;;;;;;;30.10;11.13;;;;;;;;;;1029589;28;20122;-74
2023/05/11 00:54:47;;;;;;;18.45;8.43;;;;;;;;;;1029885;28;20027;-74
2023/05/11 00:55:19;;;;;;;22.77;9.00;;;;;;;;;;1030092;28;20024;-74
2023/05/11 00:55:50;;;;;;;22.50;8.90;;;;;;;;;;1029668;28;20030;-74
2023/05/11 00:56:21;;;;;;;27.35;11.05;;;;;;;;;;1030154;28;20059;-74
2023/05/11 00:56:51;;;;;;;46.33;15.98;;;;;;;;;;1029469;28;20019;-74
2023/05/11 00:57:22;;;;;;;43.90;16.38;;;;;;;;;;1029801;28;20126;-75
2023/05/11 00:57:52;;;;;;;16.55;8.15;;;;;;;;;;1029597;28;20033;-75
2023/05/11 00:58:24;;;;;;;10.13;6.05;;;;;;;;;;1029796;28;20045;-75
2023/05/11 00:58:55;;;;;;;8.00;4.30;;;;;;;;;;1029511;28;20022;-74
2023/05/11 00:59:26;;;;;;;10.80;4.90;;;;;;;;;;1029641;28;20030;-74
2023/05/11 00:59:56;;;;;;;14.93;5.95;;;;;;;;;;1029667;28;20034;-75
2023/05/11 01:00:27;;;;;;;8.20;3.63;;;;;;;;;;1029697;28;20116;-74
2023/05/11 01:00:57;;;;;;;8.07;3.90;;;;;;;;;;1029848;28;20022;-75
2023/05/11 01:01:29;;;;;;;14.65;5.80;;;;;;;;;;1029752;28;20383;-74
2023/05/11 01:02:00;;;;;;;12.63;5.00;;;;;;;;;;1029445;28;20069;-74
2023/05/11 01:02:30;;;;;;;24.17;4.85;;;;;;;;;;1029542;28;20029;-74
2023/05/11 01:03:01;;;;;;;4.80;4.30;;;;;;;;;;1029589;28;20116;-74
2023/05/11 01:03:33;;;;;;;6.80;3.50;;;;;;;;;;1027928;28;20102;-74
2023/05/11 01:04:04;;;;;;;3.97;1.67;;;;;;;;;;1029298;28;20049;-74
2023/05/11 01:04:34;;;;;;;5.22;2.65;;;;;;;;;;1029499;28;20034;-74
2023/05/11 01:05:05;;;;;;;6.90;3.47;;;;;;;;;;1029820;28;20023;-75
2023/05/11 01:05:48;;;;;;;2.17;1.95;;;;;;;;;;1029863;28;20030;-73
2023/05/11 01:06:26;;;;;;;1.88;1.17;;;;;;;;;;1029826;28;20060;-75
2023/05/11 01:07:04;;;;;;;18.65;3.72;;;;;;;;;;1029583;28;20022;-75
2023/05/11 01:07:42;;;;;;;7.18;3.67;;;;;;;;;;1029696;28;20026;-75
2023/05/11 01:08:23;;;;;;;10.93;3.22;;;;;;;;;;1029626;28;20018;-75
2023/05/11 01:09:07;;;;;;;2.65;1.92;;;;;;;;;;1029458;28;20022;-74
2023/05/11 01:09:43;;;;;;;6.75;3.47;;;;;;;;;;1029804;28;20014;-75
2023/05/11 01:10:18;;;;;;;4.03;2.65;;;;;;;;;;1026670;28;20062;-75
2023/05/11 01:10:55;;;;;;;10.75;2.58;;;;;;;;;;1027766;28;20080;-75
2023/05/11 01:11:44;;;;;;;7.53;1.60;;;;;;;;;;1025117;28;20039;-75
2023/05/11 01:12:18;;;;;;;1.75;1.48;;;;;;;;;;1025806;28;20031;-75
2023/05/11 01:13:03;;;;;;;14.38;2.08;;;;;;;;;;1025445;28;20102;-75
2023/05/11 01:13:38;;;;;;;4.75;2.33;;;;;;;;;;1029859;28;20474;-75
2023/05/11 01:14:15;;;;;;;2.42;1.70;;;;;;;;;;1029659;28;20355;-75
2023/05/11 01:15:05;;;;;;;3.15;0.98;;;;;;;;;;1028302;28;20460;-75
2023/05/11 01:15:41;;;;;;;3.72;2.88;;;;;;;;;;1029203;28;20034;-75
2023/05/11 01:16:17;;;;;;;2.53;2.08;;;;;;;;;;1028628;28;20117;-75
2023/05/11 01:16:51;;;;;;;4.72;2.38;;;;;;;;;;1024976;28;20062;-75
2023/05/11 01:17:31;;;;;;;7.28;2.40;;;;;;;;;;1024719;28;20515;-75
2023/05/11 01:18:20;;;;;;;2.95;1.05;;;;;;;;;;1025584;28;20102;-75
2023/05/11 01:18:53;;;;;;;3.70;1.23;;;;;;;;;;1029347;28;20022;-75
2023/05/11 01:19:42;;;;;;;5.45;2.28;;;;;;;;;;1028996;28;20018;-75
2023/05/11 01:20:16;;;;;;;7.90;2.50;;;;;;;;;;1029493;28;20026;-75
2023/05/11 01:20:47;;;;;;;8.65;2.63;;;;;;;;;;1032538;28;20369;-75
2023/05/11 01:21:18;;;;;;;10.45;3.85;;;;;;;;;;1030875;28;20022;-76
2023/05/11 01:21:54;;;;;;;4.68;2.22;;;;;;;;;;1029885;28;20019;-77
2023/05/11 01:22:49;;;;;;;2.05;1.08;;;;;;;;;;1123151;23;20014;-75
2023/05/11 01:23:38;;;;;;;13.15;3.72;;;;;;;;;;1026891;28;20503;-75
2023/05/11 01:24:32;;;;;;;4.57;3.42;;;;;;;;;;1027500;28;20023;-75
2023/05/11 01:25:06;;;;;;;8.77;2.55;;;;;;;;;;1027362;28;20019;-75
2023/05/11 01:25:51;;;;;;;15.60;3.13;;;;;;;;;;1025492;28;20491;-76
2023/05/11 01:26:34;;;;;;;7.03;3.25;;;;;;;;;;1027509;28;20030;-75
2023/05/11 01:27:04;;;;;;;6.47;2.65;;;;;;;;;;1024137;28;20022;-75
2023/05/11 01:27:47;;;;;;;9.63;3.80;;;;;;;;;;1023390;28;20150;-75
2023/05/11 01:28:32;;;;;;;4.57;1.80;;;;;;;;;;1023094;28;20071;-75
2023/05/11 01:29:09;;;;;;;4.40;3.38;;;;;;;;;;1027110;28;20022;-75
2023/05/11 01:29:39;;;;;;;15.55;2.10;;;;;;;;;;1025368;28;20018;-75
2023/05/11 01:30:13;;;;;;;8.70;2.28;;;;;;;;;;1026200;28;20114;-75
2023/05/11 01:30:48;;;;;;;6.13;1.42;;;;;;;;;;1025982;28;20022;-75
2023/05/11 01:31:19;;;;;;;3.40;1.55;;;;;;;;;;1022599;28;20034;-75
2023/05/11 01:31:53;;;;;;;2.08;1.58;;;;;;;;;;1022058;28;20379;-75
2023/05/11 01:32:25;;;;;;;1.85;0.32;;;;;;;;;;1021612;28;20030;-75
2023/05/11 01:32:58;;;;;;;2.75;1.38;;;;;;;;;;1022573;28;20091;-76
2023/05/11 01:33:33;;;;;;;3.17;2.25;;;;;;;;;;1026270;28;20130;-73
2023/05/11 01:34:05;;;;;;;5.35;2.60;;;;;;;;;;1025312;28;20026;-73
2023/05/11 01:34:38;;;;;;;3.03;2.50;;;;;;;;;;1023805;28;20501;-72
2023/05/11 01:35:19;;;;;;;9.27;2.22;;;;;;;;;;1025837;28;20025;-76
2023/05/11 01:35:51;;;;;;;3.15;0.90;;;;;;;;;;1023861;28;20118;-74
2023/05/11 01:36:24;;;;;;;3.00;1.83;;;;;;;;;;1023948;28;20026;-74
2023/05/11 01:36:54;;;;;;;1.75;1.15;;;;;;;;;;1021985;29;20570;-75
2023/05/11 01:37:26;;;;;;;2.78;2.25;;;;;;;;;;1023568;28;20118;-74
2023/05/11 01:37:57;;;;;;;1.52;0.70;;;;;;;;;;1024907;28;20388;-74
2023/05/11 01:38:30;;;;;;;9.90;4.15;;;;;;;;;;1026408;28;20038;-74
2023/05/11 01:39:02;;;;;;;2.08;1.50;;;;;;;;;;1022727;28;20027;-75
2023/05/11 01:39:37;;;;;;;2.45;1.05;;;;;;;;;;1021791;28;20579;-74
2023/05/11 01:40:18;;;;;;;2.17;0.95;;;;;;;;;;1023540;28;20031;-75
2023/05/11 01:40:53;;;;;;;12.98;3.15;;;;;;;;;;1020499;29;20031;-75
2023/05/11 01:41:26;;;;;;;1.67;0.65;;;;;;;;;;1022610;29;20035;-75
2023/05/11 01:41:57;;;;;;;8.05;4.13;;;;;;;;;;1022105;29;20419;-74
2023/05/11 01:42:31;;;;;;;3.67;1.75;;;;;;;;;;1021820;28;20046;-75
2023/05/11 01:43:07;;;;;;;5.43;2.15;;;;;;;;;;1022259;29;20220;-74
2023/05/11 01:43:38;;;;;;;1.50;1.20;;;;;;;;;;1022261;29;20118;-74
2023/05/11 01:44:09;;;;;;;3.13;1.90;;;;;;;;;;1021937;29;20023;-74
2023/05/11 01:44:41;;;;;;;9.43;2.25;;;;;;;;;;1020563;28;20027;-74
2023/05/11 01:45:13;;;;;;;6.25;1.95;;;;;;;;;;1023013;28;20015;-74
2023/05/11 01:45:45;;;;;;;14.05;2.30;;;;;;;;;;1024428;28;20037;-74
2023/05/11 01:46:16;;;;;;;5.07;2.08;;;;;;;;;;1022985;28;20129;-74
2023/05/11 01:46:47;;;;;;;5.18;2.55;;;;;;;;;;1021540;28;20035;-74
2023/05/11 01:47:19;;;;;;;5.93;1.48;;;;;;;;;;1023181;28;20020;-74
2023/05/11 01:47:50;;;;;;;12.07;2.72;;;;;;;;;;1024156;28;20035;-74
2023/05/11 01:48:22;;;;;;;7.80;0.95;;;;;;;;;;1026352;28;20609;-74
2023/05/11 01:48:54;;;;;;;1.30;0.88;;;;;;;;;;1025198;28;20030;-74
2023/05/11 01:49:26;;;;;;;2.20;1.42;;;;;;;;;;1025844;28;20392;-74
2023/05/11 01:49:57;;;;;;;2.63;1.27;;;;;;;;;;1026200;28;20634;-74
2023/05/11 01:50:27;;;;;;;9.05;2.20;;;;;;;;;;1026507;28;21796;-75
2023/05/11 01:50:59;;;;;;;0.60;0.60;;;;;;;;;;1027366;28;20037;-74
2023/05/11 01:51:33;;;;;;;6.20;2.72;;;;;;;;;;1023718;28;20138;-74
2023/05/11 01:52:05;;;;;;;4.00;2.20;;;;;;;;;;1025448;28;20030;-74
2023/05/11 01:52:36;;;;;;;2.53;0.95;;;;;;;;;;1025182;28;20042;-74
2023/05/11 01:53:07;;;;;;;6.07;0.77;;;;;;;;;;1025401;28;20125;-75
2023/05/11 01:53:38;;;;;;;3.67;1.98;;;;;;;;;;1024754;28;20148;-74
2023/05/11 01:54:10;;;;;;;4.38;1.98;;;;;;;;;;1026244;28;20026;-74
2023/05/11 01:54:41;;;;;;;13.75;2.55;;;;;;;;;;1023464;28;20030;-74
2023/05/11 01:55:12;;;;;;;2.70;1.60;;;;;;;;;;1025306;28;20045;-74
2023/05/11 01:55:44;;;;;;;8.02;1.33;;;;;;;;;;1025192;28;20562;-73
2023/05/11 01:56:15;;;;;;;6.90;1.92;;;;;;;;;;1027379;28;20871;-74
2023/05/11 01:56:46;;;;;;;2.10;1.38;;;;;;;;;;1025689;28;20546;-73
2023/05/11 01:57:18;;;;;;;4.60;1.60;;;;;;;;;;1025923;28;20030;-74
2023/05/11 01:57:51;;;;;;;2.60;0.88;;;;;;;;;;1025420;28;20426;-74
2023/05/11 01:58:23;;;;;;;7.43;1.98;;;;;;;;;;1025509;28;20126;-73
2023/05/11 01:58:55;;;;;;;12.40;3.20;;;;;;;;;;1025598;28;20034;-74
2023/05/11 01:59:27;;;;;;;3.38;1.25;;;;;;;;;;1025741;28;20487;-74
2023/05/11 01:59:58;;;;;;;2.30;1.38;;;;;;;;;;1022785;28;20098;-73
2023/05/11 02:00:30;;;;;;;2.35;1.13;;;;;;;;;;1021306;28;20495;-74
2023/05/11 02:01:02;;;;;;;1.45;1.02;;;;;;;;;;1020583;28;20086;-73
2023/05/11 02:01:35;;;;;;;2.78;2.10;;;;;;;;;;1022773;28;20566;-74
2023/05/11 02:02:07;;;;;;;2.78;0.73;;;;;;;;;;1023620;28;20106;-74
2023/05/11 02:02:38;;;;;;;1.90;0.80;;;;;;;;;;1025378;28;20442;-74
2023/05/11 02:03:09;;;;;;;4.28;1.25;;;;;;;;;;1024165;28;20026;-74
2023/05/11 02:03:41;;;;;;;3.40;2.30;;;;;;;;;;1020845;29;20142;-74
2023/05/11 02:04:13;;;;;;;3.83;2.05;;;;;;;;;;1021479;29;20030;-74
2023/05/11 02:04:44;;;;;;;2.38;1.15;;;;;;;;;;1021936;29;20034;-74
2023/05/11 02:05:18;;;;;;;1.83;1.65;;;;;;;;;;1022463;28;20015;-74
2023/05/11 02:05:49;;;;;;;13.23;1.23;;;;;;;;;;1026513;28;20031;-74
2023/05/11 02:06:21;;;;;;;1.60;1.40;;;;;;;;;;1025733;28;20031;-74
2023/05/11 02:06:52;;;;;;;4.20;1.38;;;;;;;;;;1020313;29;20040;-74
2023/05/11 02:07:24;;;;;;;4.75;1.67;;;;;;;;;;1019990;29;20061;-74
2023/05/11 02:07:56;;;;;;;1.98;1.45;;;;;;;;;;1020162;29;20110;-74
2023/05/11 02:08:28;;;;;;;7.85;1.65;;;;;;;;;;1020447;28;20142;-74
2023/05/11 02:09:00;;;;;;;2.03;1.08;;;;;;;;;;1024961;28;20038;-74
2023/05/11 02:09:31;;;;;;;0.70;0.70;;;;;;;;;;1025569;28;20506;-74
2023/05/11 02:10:02;;;;;;;5.10;1.48;;;;;;;;;;1024611;28;20019;-74
2023/05/11 02:10:33;;;;;;;0.38;0.38;;;;;;;;;;1025851;28;20421;-74
2023/05/11 02:11:05;;;;;;;11.82;0.98;;;;;;;;;;1025969;28;20027;-74
2023/05/11 02:11:36;;;;;;;0.93;0.90;;;;;;;;;;1026179;28;20050;-74
2023/05/11 02:12:08;;;;;;;2.10;1.45;;;;;;;;;;1021632;29;20034;-73
2023/05/11 02:12:39;;;;;;;0.47;0.40;;;;;;;;;;1021329;29;20035;-74
2023/05/11 02:13:10;;;;;;;1.08;0.20;;;;;;;;;;1021539;29;20403;-74
2023/05/11 02:13:43;;;;;;;0.10;0.10;;;;;;;;;;1023504;29;20117;-74
2023/05/11 02:14:14;;;;;;;2.40;1.33;;;;;;;;;;1021368;29;20075;-75
2023/05/11 02:14:45;;;;;;;1.92;0.90;;;;;;;;;;1022654;29;20039;-74
2023/05/11 02:15:16;;;;;;;4.45;1.50;;;;;;;;;;1022759;28;20031;-75
2023/05/11 02:15:48;;;;;;;0.30;0.30;;;;;;;;;;1025989;28;20119;-74
2023/05/11 02:16:19;;;;;;;0.75;0.75;;;;;;;;;;1026118;28;20118;-74
2023/05/11 02:16:51;;;;;;;9.55;1.13;;;;;;;;;;1026460;28;20188;-74
2023/05/11 02:17:22;;;;;;;22.98;1.40;;;;;;;;;;1026277;28;20027;-74
2023/05/11 02:17:53;;;;;;;4.90;1.83;;;;;;;;;;1026466;28;20015;-74
2023/05/11 02:18:24;;;;;;;24.77;1.92;;;;;;;;;;1026018;28;20050;-74
2023/05/11 02:18:55;;;;;;;6.88;2.50;;;;;;;;;;1025685;28;20498;-74
2023/05/11 02:19:26;;;;;;;18.10;1.83;;;;;;;;;;1024728;28;20030;-75
2023/05/11 02:19:59;;;;;;;5.13;1.77;;;;;;;;;;1023220;28;20129;-75
2023/05/11 02:20:31;;;;;;;0.38;0.38;;;;;;;;;;1022341;28;20031;-73
2023/05/11 02:21:02;;;;;;;1.17;1.08;;;;;;;;;;1023450;28;20492;-73
2023/05/11 02:21:33;;;;;;;4.97;2.05;;;;;;;;;;1021803;29;20109;-73
2023/05/11 02:22:04;;;;;;;2.53;2.33;;;;;;;;;;1021897;28;20044;-74
2023/05/11 02:22:36;;;;;;;1.80;1.38;;;;;;;;;;1024161;28;20031;-74
2023/05/11 02:23:07;;;;;;;2.08;1.13;;;;;;;;;;1020346;29;20107;-74
2023/05/11 02:23:38;;;;;;;1.95;1.75;;;;;;;;;;1020854;29;20219;-73
2023/05/11 02:24:09;;;;;;;1.23;0.88;;;;;;;;;;1021133;29;20503;-76
2023/05/11 02:24:40;;;;;;;3.00;1.80;;;;;;;;;;1021648;28;20033;-73
2023/05/11 02:25:11;;;;;;;3.10;1.85;;;;;;;;;;1025825;28;20027;-74
2023/05/11 02:25:42;;;;;;;21.15;1.27;;;;;;;;;;1025101;28;20113;-73
2023/05/11 02:26:13;;;;;;;4.93;3.15;;;;;;;;;;1023629;28;20022;-74
2023/05/11 02:26:45;;;;;;;4.10;1.13;;;;;;;;;;1023928;28;20038;-73
2023/05/11 02:27:16;;;;;;;5.25;1.40;;;;;;;;;;1025641;28;20686;-73
2023/05/11 02:27:46;;;;;;;0.55;0.55;;;;;;;;;;1023602;28;20023;-74
2023/05/11 02:28:17;;;;;;;2.15;1.40;;;;;;;;;;1021394;28;20051;-74
2023/05/11 02:28:48;;;;;;;0.20;0.20;;;;;;;;;;1022852;29;20027;-73
2023/05/11 02:29:18;;;;;;;12.95;1.83;;;;;;;;;;1022897;28;20023;-74
2023/05/11 02:29:49;;;;;;;10.45;1.90;;;;;;;;;;1027120;28;20057;-73
2023/05/11 02:30:20;;;;;;;2.53;1.13;;;;;;;;;;1026743;28;20109;-73
2023/05/11 02:30:53;;;;;;;1.95;1.13;;;;;;;;;;1026012;28;20567;-73
2023/05/11 02:31:26;;;;;;;10.18;2.00;;;;;;;;;;1025194;28;20031;-74
2023/05/11 02:32:05;;;;;;;0.52;0.52;;;;;;;;;;1025276;28;20031;-73
2023/05/11 02:32:37;;;;;;;7.22;2.65;;;;;;;;;;1026596;28;20031;-73
2023/05/11 02:33:08;;;;;;;7.80;2.13;;;;;;;;;;1025012;28;20675;-73
2023/05/11 02:33:41;;;;;;;1.08;0.90;;;;;;;;;;1025908;28;20022;-73
2023/05/11 02:34:22;;;;;;;1.75;0.68;;;;;;;;;;1025547;28;20114;-73
2023/05/11 02:34:57;;;;;;;3.35;2.40;;;;;;;;;;1026319;28;20530;-73
2023/05/11 02:35:28;;;;;;;2.60;1.33;;;;;;;;;;1026187;28;20018;-73
2023/05/11 02:36:01;;;;;;;9.88;2.47;;;;;;;;;;1026411;28;20117;-74
2023/05/11 02:36:32;;;;;;;2.78;1.70;;;;;;;;;;1024950;28;20030;-74
2023/05/11 02:37:04;;;;;;;9.10;2.22;;;;;;;;;;1025072;28;20542;-74
2023/05/11 02:37:40;;;;;;;3.17;1.38;;;;;;;;;;1025656;28;20034;-74
2023/05/11 02:38:11;;;;;;;4.35;1.33;;;;;;;;;;1025326;28;20538;-74
2023/05/11 02:38:42;;;;;;;4.03;1.08;;;;;;;;;;1024795;28;20587;-75
2023/05/11 02:39:14;;;;;;;1.50;1.30;;;;;;;;;;1026738;28;20088;-74
2023/05/11 02:39:47;;;;;;;2.17;1.65;;;;;;;;;;1026548;28;20085;-73
2023/05/11 02:40:19;;;;;;;3.15;0.93;;;;;;;;;;1025646;28;20486;-73
2023/05/11 02:40:54;;;;;;;1.23;0.82;;;;;;;;;;1022386;28;20024;-74
2023/05/11 02:41:26;;;;;;;1.85;1.17;;;;;;;;;;1020608;29;20421;-74
2023/05/11 02:41:59;;;;;;;6.43;1.27;;;;;;;;;;1019348;29;20463;-74
2023/05/11 02:42:33;;;;;;;3.20;2.50;;;;;;;;;;1021498;28;20054;-74
2023/05/11 02:43:07;;;;;;;5.07;2.22;;;;;;;;;;1027034;28;20066;-73
2023/05/11 02:43:40;;;;;;;3.53;1.80;;;;;;;;;;1026339;28;20057;-73
2023/05/11 02:44:13;;;;;;;2.60;1.45;;;;;;;;;;1020208;28;20035;-73
2023/05/11 02:45:09;;;;;;;5.63;1.73;;;;;;;;;;1022107;29;20069;-74
2023/05/11 02:45:42;;;;;;;0.90;0.63;;;;;;;;;;1018353;29;21387;-75
2023/05/11 02:46:15;;;;;;;10.55;1.63;;;;;;;;;;1020797;29;20466;-75
2023/05/11 02:46:46;;;;;;;1.33;0.85;;;;;;;;;;1023097;29;20153;-73
2023/05/11 02:47:18;;;;;;;11.07;2.38;;;;;;;;;;1021354;28;20190;-73
2023/05/11 02:47:53;;;;;;;3.50;1.60;;;;;;;;;;1023819;28;20051;-77
2023/05/11 02:48:26;;;;;;;1.27;1.02;;;;;;;;;;1023746;28;20023;-73
2023/05/11 02:48:59;;;;;;;12.52;1.27;;;;;;;;;;1026369;28;20031;-75
2023/05/11 02:49:30;;;;;;;7.05;1.67;;;;;;;;;;1025474;28;20482;-74
2023/05/11 02:50:03;;;;;;;1.67;1.08;;;;;;;;;;1025063;28;20026;-75
2023/05/11 02:50:36;;;;;;;6.65;1.05;;;;;;;;;;1025054;28;20034;-75
2023/05/11 02:51:07;;;;;;;2.15;0.68;;;;;;;;;;1024755;28;20022;-74
2023/05/11 02:51:40;;;;;;;2.80;1.50;;;;;;;;;;1024577;28;20022;-75
2023/05/11 02:52:12;;;;;;;9.68;1.27;;;;;;;;;;1024652;28;20028;-75
2023/05/11 02:52:44;;;;;;;2.22;0.95;;;;;;;;;;1024037;28;20598;-75
2023/05/11 02:53:16;;;;;;;0.88;0.82;;;;;;;;;;1025180;28;20414;-75
2023/05/11 02:53:53;;;;;;;2.35;1.13;;;;;;;;;;1025854;28;20030;-76
2023/05/11 02:54:25;;;;;;;1.23;1.10;;;;;;;;;;1021943;28;20019;-76
2023/05/11 02:54:56;;;;;;;8.68;1.58;;;;;;;;;;1022105;28;20024;-75
2023/05/11 02:55:27;;;;;;;3.72;2.00;;;;;;;;;;1023583;28;20054;-75
2023/05/11 02:55:58;;;;;;;1.02;0.60;;;;;;;;;;1021719;28;20114;-75
2023/05/11 02:56:29;;;;;;;2.85;1.20;;;;;;;;;;1021911;28;20502;-74
2023/05/11 02:56:59;;;;;;;0.32;0.28;;;;;;;;;;1017681;29;20074;-75
2023/05/11 02:57:30;;;;;;;2.92;1.55;;;;;;;;;;1017456;29;20487;-75
2023/05/11 02:58:01;;;;;;;6.38;3.17;;;;;;;;;;1017786;29;20027;-75
2023/05/11 02:58:31;;;;;;;1.60;1.08;;;;;;;;;;1021264;29;20558;-75
2023/05/11 02:59:02;;;;;;;3.28;2.22;;;;;;;;;;1020287;29;20040;-75
2023/05/11 02:59:33;;;;;;;3.72;1.48;;;;;;;;;;1019594;29;20035;-74
2023/05/11 03:00:04;;;;;;;4.85;1.95;;;;;;;;;;1019958;29;20126;-75
2023/05/11 03:00:34;;;;;;;2.95;1.30;;;;;;;;;;1021398;29;20043;-76
2023/05/11 03:01:09;;;;;;;3.33;1.15;;;;;;;;;;1029203;28;20023;-75
2023/05/11 03:01:40;;;;;;;7.43;3.35;;;;;;;;;;1027705;28;20026;-76
2023/05/11 03:02:11;;;;;;;5.60;2.58;;;;;;;;;;1023923;28;20427;-74
2023/05/11 03:02:42;;;;;;;1.08;0.55;;;;;;;;;;1027642;28;20019;-75
2023/05/11 03:03:12;;;;;;;3.97;1.38;;;;;;;;;;1024934;28;20026;-75
2023/05/11 03:03:43;;;;;;;3.10;0.77;;;;;;;;;;1025274;28;20042;-76
2023/05/11 03:04:13;;;;;;;1.52;1.13;;;;;;;;;;1024967;28;20090;-76
2023/05/11 03:04:44;;;;;;;2.05;0.68;;;;;;;;;;1029211;28;20110;-75
2023/05/11 03:05:15;;;;;;;0.88;0.75;;;;;;;;;;1026874;28;20034;-76
2023/05/11 03:05:46;;;;;;;1.08;0.70;;;;;;;;;;1022050;28;20027;-76
2023/05/11 03:06:17;;;;;;;4.10;0.60;;;;;;;;;;1022397;29;20550;-75
2023/05/11 03:06:48;;;;;;;4.13;1.10;;;;;;;;;;1022797;28;20812;-76
2023/05/11 03:07:18;;;;;;;4.20;1.13;;;;;;;;;;1017659;29;20028;-75
2023/05/11 03:07:50;;;;;;;0.10;0.10;;;;;;;;;;1023069;28;20029;-74
2023/05/11 03:08:20;;;;;;;1.25;1.15;;;;;;;;;;1025828;28;20524;-73
2023/05/11 03:08:51;;;;;;;1.75;1.58;;;;;;;;;;1025034;28;20046;-75
2023/05/11 03:09:21;;;;;;;1.85;0.77;;;;;;;;;;1023307;28;20101;-73
2023/05/11 03:09:58;;;;;;;1.40;1.30;;;;;;;;;;1019184;28;20023;-75
2023/05/11 03:10:29;;;;;;;5.82;1.35;;;;;;;;;;1023155;28;20118;-74
2023/05/11 03:11:00;;;;;;;0.73;0.73;;;;;;;;;;1016971;29;20477;-75
2023/05/11 03:11:31;;;;;;;1.15;1.10;;;;;;;;;;1018256;28;20031;-76
2023/05/11 03:12:03;;;;;;;1.60;1.13;;;;;;;;;;1021898;28;20034;-75
2023/05/11 03:12:34;;;;;;;0.93;0.85;;;;;;;;;;1022962;28;20654;-74
2023/05/11 03:13:06;;;;;;;7.47;1.13;;;;;;;;;;1025965;28;20034;-76
2023/05/11 03:13:38;;;;;;;0.88;0.57;;;;;;;;;;1024398;28;20089;-75